createdAt,value
2023-02-28T00:00:52.957Z,100088.66
2023-02-28T00:03:26.417Z,100094.03
2023-02-28T00:05:59.837Z,100097.88
2023-02-28T00:08:33.830Z,100098.69
2023-02-28T00:11:10.836Z,100103.41
2023-02-28T00:13:48.324Z,100106.84
2023-02-28T00:16:24.355Z,100119.00
2023-02-28T00:18:58.231Z,100115.59
2023-02-28T00:21:31.803Z,100116.38
2023-02-28T00:24:06.057Z,100117.09
2023-02-28T00:26:41.013Z,100102.88
2023-02-28T00:29:14.474Z,100118.09
2023-02-28T00:31:47.813Z,100127.38
2023-02-28T00:34:21.183Z,100141.03
2023-02-28T00:36:54.948Z,100146.44
2023-02-28T00:39:28.397Z,100143.56
2023-02-28T00:42:04.569Z,100145.44
2023-02-28T00:44:38.071Z,100138.59
2023-02-28T00:47:11.640Z,100146.63
2023-02-28T00:49:45.381Z,100151.25
2023-02-28T00:52:18.638Z,100160.97
2023-02-28T00:54:52.165Z,100151.03
2023-02-28T00:57:27.712Z,100154.31
2023-02-28T01:00:01.086Z,100162.97
2023-02-28T01:02:34.435Z,100133.66
2023-02-28T01:05:08.482Z,100166.16
2023-02-28T01:07:42.173Z,100171.06
2023-02-28T01:10:15.550Z,100168.41
2023-02-28T01:12:53.458Z,100177.00
2023-02-28T01:15:27.454Z,100177.47
2023-02-28T01:18:01.324Z,100189.50
2023-02-28T01:20:34.645Z,100182.00
2023-02-28T01:23:08.227Z,100185.38
2023-02-28T01:25:41.741Z,100175.78
2023-02-28T01:28:16.729Z,100186.94
2023-02-28T01:30:51.101Z,100182.59
2023-02-28T01:33:24.712Z,100192.66
2023-02-28T01:36:01.099Z,100189.13
2023-02-28T01:38:35.607Z,100172.09
2023-02-28T01:41:09.771Z,100199.81
2023-02-28T01:44:04.790Z,100193.81
2023-02-28T01:46:38.369Z,100219.53
2023-02-28T01:49:17.589Z,100212.50
2023-02-28T01:51:55.758Z,100214.75
2023-02-28T01:54:33.092Z,100225.44
2023-02-28T01:57:10.991Z,100218.91
2023-02-28T01:59:50.990Z,100211.78
2023-02-28T02:02:26.444Z,100233.75
2023-02-28T02:05:07.149Z,100211.09
2023-02-28T02:07:43.333Z,100234.03
2023-02-28T02:10:18.803Z,100233.69
2023-02-28T02:13:11.076Z,100227.53
2023-02-28T02:15:57.045Z,100247.53
2023-02-28T02:18:36.898Z,100239.56
2023-02-28T02:21:51.548Z,100256.53
2023-02-28T02:24:56.977Z,100250.28
2023-02-28T02:27:57.698Z,100241.56
2023-02-28T02:31:22.418Z,100265.47
2023-02-28T02:34:31.419Z,100269.97
2023-02-28T02:37:17.555Z,100267.25
2023-02-28T02:39:56.131Z,100262.13
2023-02-28T02:42:34.367Z,100272.31
2023-02-28T02:45:12.544Z,100153.00
2023-02-28T02:47:47.474Z,100276.97
2023-02-28T02:50:28.749Z,100250.16
2023-02-28T02:53:04.891Z,100274.41
2023-02-28T02:55:43.147Z,100274.94
2023-02-28T02:58:22.504Z,100276.38
2023-02-28T03:01:00.312Z,100280.06
2023-02-28T03:03:36.418Z,100281.03
2023-02-28T03:06:11.209Z,100294.00
2023-02-28T03:08:44.545Z,100296.22
2023-02-28T03:11:19.331Z,100298.72
2023-02-28T03:14:27.103Z,100289.88
2023-02-28T03:17:12.794Z,100295.41
2023-02-28T03:19:57.807Z,100301.88
2023-02-28T03:22:53.477Z,100312.88
2023-02-28T03:25:35.501Z,100289.56
2023-02-28T03:28:17.940Z,100276.13
2023-02-28T03:30:55.141Z,100299.16
2023-02-28T03:33:31.884Z,100299.88
2023-02-28T03:36:10.542Z,100292.50
2023-02-28T03:38:49.687Z,100293.16
2023-02-28T03:41:30.013Z,100293.91
2023-02-28T03:44:07.932Z,100291.56
2023-02-28T03:46:47.138Z,100287.00
2023-02-28T03:49:25.150Z,100304.34
2023-02-28T03:52:03.471Z,100291.38
2023-02-28T03:54:43.518Z,100298.72
2023-02-28T03:57:25.277Z,100311.78
2023-02-28T04:00:01.654Z,100303.81
2023-02-28T04:02:36.064Z,100283.25
2023-02-28T04:05:09.958Z,100319.16
2023-02-28T04:07:43.779Z,100323.72
2023-02-28T04:10:19.265Z,100332.56
2023-02-28T04:12:53.847Z,100334.28
2023-02-28T04:15:28.419Z,100338.09
2023-02-28T04:18:02.760Z,100347.97
2023-02-28T04:20:35.940Z,100345.53
2023-02-28T04:23:09.530Z,100305.31
2023-02-28T04:25:44.595Z,100344.78
2023-02-28T04:28:17.978Z,100341.38
2023-02-28T04:30:57.082Z,100344.16
2023-02-28T04:33:31.032Z,100324.56
2023-02-28T04:36:06.742Z,100353.44
2023-02-28T04:38:40.982Z,100349.19
2023-02-28T04:41:15.861Z,100341.19
2023-02-28T04:43:49.570Z,100354.50
2023-02-28T04:46:23.192Z,100358.50
2023-02-28T04:48:56.905Z,100343.72
2023-02-28T04:51:30.608Z,100352.66
2023-02-28T04:54:04.096Z,100365.22
2023-02-28T04:56:39.016Z,100379.28
2023-02-28T04:59:12.367Z,100374.91
2023-02-28T05:01:48.886Z,100381.19
2023-02-28T05:04:22.558Z,100386.16
2023-02-28T05:06:56.379Z,100391.81
2023-02-28T05:09:29.731Z,100392.69
2023-02-28T05:12:05.945Z,100392.69
2023-02-28T05:14:39.845Z,100397.03
2023-02-28T05:17:13.437Z,100401.56
2023-02-28T05:19:46.856Z,100403.19
2023-02-28T05:22:20.193Z,100402.88
2023-02-28T05:24:53.429Z,100393.34
2023-02-28T05:27:29.387Z,100403.41
2023-02-28T05:30:04.524Z,100412.31
2023-02-28T05:32:38.532Z,100406.34
2023-02-28T05:35:12.997Z,100420.47
2023-02-28T05:37:46.607Z,100427.44
2023-02-28T05:40:21.523Z,100423.50
2023-02-28T05:42:56.310Z,100416.06
2023-02-28T05:45:29.951Z,100420.25
2023-02-28T05:48:03.456Z,100434.00
2023-02-28T05:50:37.191Z,100444.97
2023-02-28T05:53:10.454Z,100431.94
2023-02-28T05:55:43.681Z,100442.34
2023-02-28T05:58:18.364Z,100419.34
2023-02-28T06:00:51.700Z,100420.66
2023-02-28T06:03:25.416Z,100427.81
2023-02-28T06:05:59.146Z,100429.25
2023-02-28T06:08:33.283Z,100446.97
2023-02-28T06:11:07.829Z,100451.75
2023-02-28T06:13:42.777Z,100462.16
2023-02-28T06:16:16.301Z,100479.13
2023-02-28T06:18:49.965Z,100475.41
2023-02-28T06:21:23.743Z,100475.84
2023-02-28T06:23:58.212Z,100471.34
2023-02-28T06:26:32.273Z,100461.16
2023-02-28T06:29:06.726Z,100486.41
2023-02-28T06:31:41.016Z,100493.19
2023-02-28T06:34:14.998Z,100506.06
2023-02-28T06:36:48.502Z,100501.81
2023-02-28T06:39:22.393Z,100509.03
2023-02-28T06:41:56.575Z,100503.91
2023-02-28T06:44:36.167Z,100488.06
2023-02-28T06:47:09.816Z,100489.88
2023-02-28T06:49:43.320Z,100487.41
2023-02-28T06:52:17.365Z,100489.28
2023-02-28T06:55:00.689Z,100492.06
2023-02-28T06:57:35.155Z,100480.56
2023-02-28T07:00:13.764Z,100482.53
2023-02-28T07:02:48.160Z,100487.41
2023-02-28T07:05:21.697Z,100479.53
2023-02-28T07:07:55.134Z,100489.28
2023-02-28T07:10:28.321Z,100493.09
2023-02-28T07:13:02.531Z,100499.38
2023-02-28T07:15:41.736Z,100501.84
2023-02-28T07:18:16.594Z,100495.50
2023-02-28T07:20:49.900Z,100503.28
2023-02-28T07:23:23.173Z,100504.50
2023-02-28T07:25:56.476Z,100499.63
2023-02-28T07:28:30.244Z,100505.81
2023-02-28T07:31:10.556Z,100504.84
2023-02-28T07:33:44.089Z,100513.81
2023-02-28T07:36:19.809Z,100508.09
2023-02-28T07:38:52.936Z,100496.03
2023-02-28T07:41:28.995Z,100479.53
2023-02-28T07:44:04.260Z,100497.28
2023-02-28T07:46:39.241Z,100495.59
2023-02-28T07:49:12.704Z,100508.28
2023-02-28T07:51:46.136Z,100503.72
2023-02-28T07:54:19.673Z,100497.16
2023-02-28T07:56:53.092Z,100494.41
2023-02-28T07:59:27.402Z,100508.69
2023-02-28T08:02:03.020Z,100514.56
2023-02-28T08:04:36.471Z,100520.34
2023-02-28T08:07:10.888Z,100525.38
2023-02-28T08:09:45.857Z,100524.44
2023-02-28T08:12:21.686Z,100521.00
2023-02-28T08:14:55.497Z,100512.81
2023-02-28T08:17:30.527Z,100516.63
2023-02-28T08:20:05.072Z,100523.22
2023-02-28T08:22:38.461Z,100521.91
2023-02-28T08:25:12.001Z,100518.72
2023-02-28T08:27:45.386Z,100528.00
2023-02-28T08:30:19.034Z,100528.94
2023-02-28T08:32:53.934Z,100520.88
2023-02-28T08:35:27.353Z,100517.66
2023-02-28T08:38:00.717Z,100516.56
2023-02-28T08:40:33.874Z,100520.75
2023-02-28T08:43:07.527Z,100519.09
2023-02-28T08:45:41.618Z,100520.03
2023-02-28T08:48:18.651Z,100522.88
2023-02-28T08:51:07.244Z,100516.06
2023-02-28T08:53:42.454Z,100521.75
2023-02-28T08:56:18.415Z,100508.47
2023-02-28T08:58:52.765Z,100515.66
2023-02-28T09:01:29.355Z,100518.59
2023-02-28T09:04:04.844Z,100519.31
2023-02-28T09:06:39.352Z,100516.91
2023-02-28T09:09:13.081Z,100517.38
2023-02-28T09:11:51.657Z,100525.66
2023-02-28T09:14:25.672Z,100524.03
2023-02-28T09:17:00.417Z,100514.25
2023-02-28T09:19:35.871Z,100514.13
2023-02-28T09:22:09.211Z,100519.81
2023-02-28T09:24:42.788Z,100507.66
2023-02-28T09:27:15.979Z,100498.53
2023-02-28T09:29:49.426Z,100493.91
2023-02-28T09:32:22.957Z,100501.50
2023-02-28T09:34:58.127Z,100498.06
2023-02-28T09:37:32.223Z,100493.34
2023-02-28T09:40:06.508Z,100482.78
2023-02-28T09:42:41.070Z,100487.69
2023-02-28T09:45:23.373Z,100481.44
2023-02-28T09:48:01.084Z,100487.22
2023-02-28T09:50:39.113Z,100486.94
2023-02-28T09:53:21.988Z,100489.47
2023-02-28T09:56:00.464Z,100497.66
2023-02-28T09:58:41.052Z,100497.16
2023-02-28T10:01:23.778Z,100501.06
2023-02-28T10:04:01.055Z,100498.91
2023-02-28T10:06:42.826Z,100505.53
2023-02-28T10:09:23.743Z,100503.06
2023-02-28T10:12:06.141Z,100490.78
2023-02-28T10:14:45.383Z,100485.66
2023-02-28T10:17:23.961Z,100484.56
2023-02-28T10:20:08.767Z,100481.38
2023-02-28T10:22:55.833Z,100454.72
2023-02-28T10:25:31.684Z,100483.84
2023-02-28T10:28:12.940Z,100480.13
2023-02-28T10:30:50.632Z,100477.03
2023-02-28T10:33:30.474Z,100463.19
2023-02-28T10:36:07.765Z,100459.06
2023-02-28T10:38:42.868Z,100459.72
2023-02-28T10:41:21.230Z,100453.13
2023-02-28T10:43:54.567Z,100438.66
2023-02-28T10:46:28.584Z,100444.09
2023-02-28T10:49:06.368Z,100442.75
2023-02-28T10:51:41.720Z,100449.31
2023-02-28T10:54:21.247Z,100454.28
2023-02-28T10:57:18.715Z,100444.38
2023-02-28T10:59:56.028Z,100438.75
2023-02-28T11:02:36.698Z,100439.78
2023-02-28T11:05:32.307Z,100429.25
2023-02-28T11:08:13.720Z,100422.97
2023-02-28T11:10:49.684Z,100425.72
2023-02-28T11:13:29.427Z,100431.28
2023-02-28T11:16:06.565Z,100426.28
2023-02-28T11:18:44.930Z,100427.13
2023-02-28T11:21:23.071Z,100435.81
2023-02-28T11:24:03.306Z,100423.31
2023-02-28T11:26:44.571Z,100425.34
2023-02-28T11:29:22.931Z,100436.50
2023-02-28T11:32:16.004Z,100429.16
2023-02-28T11:35:06.066Z,100432.16
2023-02-28T11:38:03.703Z,100409.25
2023-02-28T11:40:46.598Z,100433.41
2023-02-28T11:43:34.038Z,100422.09
2023-02-28T11:46:20.602Z,100419.13
2023-02-28T11:49:02.112Z,100411.66
2023-02-28T11:51:37.591Z,100418.47
2023-02-28T11:54:49.402Z,100383.22
2023-02-28T11:57:35.862Z,100414.56
2023-02-28T12:00:21.601Z,100413.13
2023-02-28T12:03:09.016Z,100403.00
2023-02-28T12:05:47.109Z,100403.72
2023-02-28T12:08:38.536Z,100411.63
2023-02-28T12:11:21.440Z,100399.00
2023-02-28T12:14:20.369Z,100421.94
2023-02-28T12:17:02.801Z,100412.69
2023-02-28T12:19:45.844Z,100413.63
2023-02-28T12:22:32.106Z,100417.88
2023-02-28T12:25:24.817Z,100420.97
2023-02-28T12:27:59.499Z,100413.97
2023-02-28T12:30:35.963Z,100401.84
2023-02-28T12:33:16.811Z,100395.97
2023-02-28T12:35:56.657Z,100402.25
2023-02-28T12:38:33.617Z,100407.78
2023-02-28T12:41:12.986Z,100395.31
2023-02-28T12:43:51.897Z,100393.59
2023-02-28T12:46:29.958Z,100393.41
2023-02-28T12:49:10.792Z,100400.78
2023-02-28T12:51:47.192Z,100389.28
2023-02-28T12:54:28.270Z,100385.44
2023-02-28T12:57:10.268Z,100390.56
2023-02-28T12:59:51.419Z,100382.53
2023-02-28T13:02:51.482Z,100387.56
2023-02-28T13:06:02.702Z,100365.56
2023-02-28T13:09:01.638Z,100389.34
2023-02-28T13:11:42.501Z,100382.31
2023-02-28T13:14:25.704Z,100382.78
2023-02-28T13:17:12.140Z,100388.22
2023-02-28T13:19:49.662Z,100381.38
2023-02-28T13:22:40.474Z,100383.06
2023-02-28T13:25:58.530Z,100380.00
2023-02-28T13:29:09.318Z,100382.44
2023-02-28T13:32:20.233Z,100383.22
2023-02-28T13:35:16.573Z,100366.81
2023-02-28T13:37:52.860Z,100370.19
2023-02-28T13:40:37.963Z,100366.97
2023-02-28T13:43:11.610Z,100360.28
2023-02-28T13:46:09.463Z,100375.59
2023-02-28T13:48:43.417Z,100373.19
2023-02-28T13:51:44.516Z,100375.16
2023-02-28T13:54:42.938Z,100377.59
2023-02-28T13:57:29.202Z,100369.47
2023-02-28T14:00:19.286Z,100374.31
2023-02-28T14:03:07.963Z,100375.50
2023-02-28T14:05:42.241Z,100367.41
2023-02-28T14:08:21.895Z,100381.50
2023-02-28T14:11:07.177Z,100369.66
2023-02-28T14:13:46.516Z,100370.03
2023-02-28T14:16:25.372Z,100367.91
2023-02-28T14:19:03.389Z,100352.88
2023-02-28T14:21:40.330Z,100374.19
2023-02-28T14:24:42.594Z,100376.50
2023-02-28T14:27:39.842Z,100376.44
2023-02-28T14:30:50.982Z,100374.31
2023-02-28T14:33:50.401Z,100380.31
2023-02-28T14:36:28.866Z,100343.22
2023-02-28T14:39:09.326Z,100365.97
2023-02-28T14:41:46.320Z,100379.25
2023-02-28T14:44:22.291Z,100394.56
2023-02-28T14:46:57.355Z,100395.59
2023-02-28T14:49:33.740Z,100397.41
2023-02-28T14:52:17.969Z,100393.06
2023-02-28T14:54:56.048Z,100400.75
2023-02-28T14:57:33.623Z,100394.72
2023-02-28T15:00:15.896Z,100392.28
2023-02-28T15:02:49.177Z,100384.09
2023-02-28T15:05:28.172Z,100395.22
2023-02-28T15:08:14.859Z,100399.47
2023-02-28T15:10:55.189Z,100394.59
2023-02-28T15:13:38.431Z,100397.91
2023-02-28T15:16:16.060Z,100415.56
2023-02-28T15:18:53.616Z,100409.56
2023-02-28T15:21:31.060Z,100413.97
2023-02-28T15:24:09.293Z,100421.38
2023-02-28T15:26:45.108Z,100400.88
2023-02-28T15:29:22.939Z,100337.72
2023-02-28T15:31:59.687Z,100404.19
2023-02-28T15:34:43.392Z,100416.13
2023-02-28T15:37:28.431Z,100419.88
2023-02-28T15:40:13.585Z,100410.75
2023-02-28T15:43:01.932Z,100418.16
2023-02-28T15:45:41.996Z,100417.94
2023-02-28T15:48:20.446Z,100411.59
2023-02-28T15:50:56.054Z,100424.47
2023-02-28T15:53:33.863Z,100404.47
2023-02-28T15:56:16.087Z,100419.06
2023-02-28T15:58:50.722Z,100435.97
2023-02-28T16:01:31.145Z,100431.44
2023-02-28T16:04:06.749Z,100444.72
2023-02-28T16:06:43.797Z,100424.78
2023-02-28T16:09:18.721Z,100445.19
2023-02-28T16:11:55.315Z,100446.41
2023-02-28T16:14:31.724Z,100415.16
2023-02-28T16:17:09.882Z,100453.06
2023-02-28T16:19:44.095Z,100454.41
2023-02-28T16:22:17.667Z,100456.84
2023-02-28T16:24:51.114Z,100459.66
2023-02-28T16:27:32.520Z,100461.19
2023-02-28T16:30:08.805Z,100444.16
2023-02-28T16:32:43.462Z,100456.63
2023-02-28T16:35:17.143Z,100461.56
2023-02-28T16:37:52.484Z,100463.56
2023-02-28T16:40:29.642Z,100463.84
2023-02-28T16:43:09.589Z,100383.63
2023-02-28T16:45:43.239Z,100465.28
2023-02-28T16:48:18.643Z,100457.22
2023-02-28T16:50:52.809Z,100465.25
2023-02-28T16:53:26.386Z,100461.13
2023-02-28T16:56:02.890Z,100477.94
2023-02-28T16:58:37.058Z,100480.06
2023-02-28T17:01:10.397Z,100479.06
2023-02-28T17:03:45.220Z,100471.75
2023-02-28T17:06:23.042Z,100469.88
2023-02-28T17:08:58.710Z,100474.81
2023-02-28T17:11:32.426Z,100475.31
2023-02-28T17:14:06.117Z,100465.97
2023-02-28T17:16:43.166Z,100453.84
2023-02-28T17:19:21.642Z,100471.28
2023-02-28T17:21:55.457Z,100466.13
2023-02-28T17:24:31.164Z,100467.16
2023-02-28T17:27:05.406Z,100469.97
2023-02-28T17:29:39.023Z,100457.63
2023-02-28T17:32:19.441Z,100476.25
2023-02-28T17:34:54.518Z,100471.84
2023-02-28T17:37:27.837Z,100473.38
2023-02-28T17:40:01.210Z,100473.13
2023-02-28T17:42:34.508Z,100480.38
2023-02-28T17:45:08.927Z,100481.81
2023-02-28T17:47:43.782Z,100490.84
2023-02-28T17:50:20.667Z,100471.16
2023-02-28T17:52:53.874Z,100481.31
2023-02-28T17:55:27.636Z,100465.53
2023-02-28T17:58:01.154Z,100453.56
2023-02-28T18:00:35.571Z,100452.53
2023-02-28T18:03:09.198Z,100446.19
2023-02-28T18:05:44.261Z,100393.72
2023-02-28T18:08:18.461Z,100426.03
2023-02-28T18:10:52.109Z,100436.63
2023-02-28T18:13:25.206Z,100436.75
2023-02-28T18:15:58.752Z,100447.03
2023-02-28T18:18:32.449Z,100448.94
2023-02-28T18:21:07.748Z,100454.22
2023-02-28T18:23:47.896Z,100443.63
2023-02-28T18:26:22.221Z,100447.25
2023-02-28T18:28:55.610Z,100439.19
2023-02-28T18:31:29.127Z,100452.38
2023-02-28T18:34:03.019Z,100454.22
2023-02-28T18:36:38.345Z,100457.84
2023-02-28T18:39:12.419Z,100452.38
2023-02-28T18:41:45.378Z,100465.53
2023-02-28T18:44:21.061Z,100458.50
2023-02-28T18:46:54.557Z,100451.44
2023-02-28T18:49:28.049Z,100459.31
2023-02-28T18:52:03.349Z,100462.03
2023-02-28T18:54:37.122Z,100465.97
2023-02-28T18:57:10.530Z,100457.50
2023-02-28T18:59:44.189Z,100453.22
2023-02-28T19:02:17.770Z,100453.91
2023-02-28T19:04:52.072Z,100461.88
2023-02-28T19:07:27.058Z,100466.19
2023-02-28T19:10:00.603Z,100472.53
2023-02-28T19:12:36.409Z,100473.22
2023-02-28T19:15:11.743Z,100472.69
2023-02-28T19:17:46.267Z,100473.75
2023-02-28T19:20:19.951Z,100464.34
2023-02-28T19:22:54.597Z,100449.38
2023-02-28T19:25:28.019Z,100445.31
2023-02-28T19:28:01.318Z,100447.53
2023-02-28T19:30:34.990Z,100451.97
2023-02-28T19:33:08.512Z,100441.81
2023-02-28T19:35:43.821Z,100437.88
2023-02-28T19:38:18.486Z,100443.94
2023-02-28T19:41:00.686Z,100431.22
2023-02-28T19:43:34.214Z,100445.66
2023-02-28T19:46:09.610Z,100450.22
2023-02-28T19:48:44.764Z,100453.69
2023-02-28T19:51:18.914Z,100474.31
2023-02-28T19:53:53.908Z,100468.53
2023-02-28T19:56:27.427Z,100466.75
2023-02-28T19:59:01.071Z,100470.66
2023-02-28T20:01:34.641Z,100458.84
2023-02-28T20:04:08.166Z,100454.19
2023-02-28T20:06:41.483Z,100451.28
2023-02-28T20:09:16.678Z,100455.53
2023-02-28T20:12:00.897Z,100448.72
2023-02-28T20:14:35.218Z,100445.22
2023-02-28T20:17:08.874Z,100437.44
2023-02-28T20:19:42.358Z,100434.53
2023-02-28T20:22:16.039Z,100435.25
2023-02-28T20:24:50.876Z,100438.38
2023-02-28T20:27:24.149Z,100443.94
2023-02-28T20:29:57.611Z,100458.53
2023-02-28T20:32:31.166Z,100467.41
2023-02-28T20:35:05.615Z,100472.63
2023-02-28T20:37:39.853Z,100477.63
2023-02-28T20:40:15.854Z,100470.78
2023-02-28T20:42:49.240Z,100477.72
2023-02-28T20:45:24.483Z,100478.03
2023-02-28T20:47:57.732Z,100475.91
2023-02-28T20:50:31.719Z,100471.78
2023-02-28T20:53:05.429Z,100464.25
2023-02-28T20:55:40.228Z,100449.97
2023-02-28T20:58:13.844Z,100451.78
2023-02-28T21:00:47.895Z,100455.53
2023-02-28T21:03:22.324Z,100450.84
2023-02-28T21:06:01.286Z,100441.53
2023-02-28T21:08:35.782Z,100436.97
2023-02-28T21:11:11.628Z,100445.56
2023-02-28T21:13:47.467Z,100440.53
2023-02-28T21:16:24.213Z,100433.97
2023-02-28T21:19:04.109Z,100429.22
2023-02-28T21:21:40.146Z,100422.88
2023-02-28T21:24:14.367Z,100424.31
2023-02-28T21:26:49.607Z,100437.50
2023-02-28T21:29:22.948Z,100434.78
2023-02-28T21:31:56.284Z,100438.31
2023-02-28T21:34:29.946Z,100442.09
2023-02-28T21:37:03.901Z,100445.66
2023-02-28T21:39:37.223Z,100447.09
2023-02-28T21:42:13.078Z,100442.34
2023-02-28T21:44:46.486Z,100456.50
2023-02-28T21:47:19.722Z,100455.34
2023-02-28T21:49:52.958Z,100450.16
2023-02-28T21:52:26.465Z,100451.41
2023-02-28T21:54:59.957Z,100449.66
2023-02-28T21:57:36.042Z,100439.81
2023-02-28T22:00:12.067Z,100436.50
2023-02-28T22:02:46.021Z,100430.56
2023-02-28T22:05:19.523Z,100422.72
2023-02-28T22:07:53.090Z,100431.28
2023-02-28T22:10:26.580Z,100443.44
2023-02-28T22:13:03.661Z,100421.84
2023-02-28T22:15:38.500Z,100429.59
2023-02-28T22:18:12.349Z,100430.78
2023-02-28T22:20:45.688Z,100425.69
2023-02-28T22:23:19.351Z,100423.81
2023-02-28T22:25:53.808Z,100420.19
2023-02-28T22:28:30.485Z,100422.44
2023-02-28T22:31:13.810Z,100423.47
2023-02-28T22:33:48.148Z,100426.75
2023-02-28T22:36:22.695Z,100421.31
2023-02-28T22:38:56.304Z,100417.00
2023-02-28T22:41:30.328Z,100412.13
2023-02-28T22:44:07.222Z,100414.81
2023-02-28T22:46:40.787Z,100433.56
2023-02-28T22:49:14.334Z,100438.31
2023-02-28T22:51:48.175Z,100431.16
2023-02-28T22:54:21.612Z,100436.28
2023-02-28T22:56:54.901Z,100440.13
2023-02-28T22:59:29.799Z,100437.22
2023-02-28T23:02:05.293Z,100437.47
2023-02-28T23:04:38.688Z,100428.69
2023-02-28T23:07:12.262Z,100428.09
2023-02-28T23:09:45.650Z,100430.88
2023-02-28T23:12:19.316Z,100436.75
2023-02-28T23:14:54.428Z,100457.97
2023-02-28T23:17:28.005Z,100456.44
2023-02-28T23:20:02.065Z,100466.38
2023-02-28T23:22:35.605Z,100463.16
2023-02-28T23:25:09.545Z,100468.94
2023-02-28T23:27:42.797Z,100462.47
2023-02-28T23:30:18.073Z,100452.66
2023-02-28T23:32:51.938Z,100448.34
2023-02-28T23:35:25.312Z,100448.91
2023-02-28T23:37:59.321Z,100455.91
2023-02-28T23:40:32.941Z,100461.50
2023-02-28T23:43:06.226Z,100456.69
2023-02-28T23:45:43.379Z,100452.19
2023-02-28T23:48:17.420Z,100449.94
2023-02-28T23:50:50.686Z,100443.56
2023-02-28T23:53:24.053Z,100423.56
2023-02-28T23:55:57.876Z,100416.56
2023-02-28T23:58:31.603Z,100400.81
